sensor_id;sensor_type;location;lat;lon;timestamp;pressure;altitude;pressure_sealevel;temperature;humidity
72525;BME280;60547;48.502;8.996;2022-11-06T00:00:15;98376.00;;;3.88;90.72
72525;BME280;60547;48.502;8.996;2022-11-06T00:02:41;98374.00;;;3.85;91.06
72525;BME280;60547;48.502;8.996;2022-11-06T00:05:07;98370.84;;;3.83;90.54
72525;BME280;60547;48.502;8.996;2022-11-06T00:07:51;98379.88;;;3.83;90.82
72525;BME280;60547;48.502;8.996;2022-11-06T00:10:17;98394.44;;;3.84;91.16
72525;BME280;60547;48.502;8.996;2022-11-06T00:12:43;98381.81;;;3.79;91.14
72525;BME280;60547;48.502;8.996;2022-11-06T00:15:09;98378.69;;;3.81;91.04
72525;BME280;60547;48.502;8.996;2022-11-06T00:17:35;98371.91;;;3.71;90.43
72525;BME280;60547;48.502;8.996;2022-11-06T00:20:02;98376.63;;;3.71;90.37
72525;BME280;60547;48.502;8.996;2022-11-06T00:22:27;98380.63;;;3.77;89.66
72525;BME280;60547;48.502;8.996;2022-11-06T00:24:56;98381.41;;;3.77;89.79
72525;BME280;60547;48.502;8.996;2022-11-06T00:27:21;98372.75;;;3.75;89.45
72525;BME280;60547;48.502;8.996;2022-11-06T00:29:46;98354.22;;;3.69;90.29
72525;BME280;60547;48.502;8.996;2022-11-06T00:32:12;98350.63;;;3.65;89.41
72525;BME280;60547;48.502;8.996;2022-11-06T00:34:37;98364.38;;;3.65;89.74
72525;BME280;60547;48.502;8.996;2022-11-06T00:37:02;98349.38;;;3.55;89.56
72525;BME280;60547;48.502;8.996;2022-11-06T00:39:28;98345.00;;;3.50;89.85
72525;BME280;60547;48.502;8.996;2022-11-06T00:41:53;98349.72;;;3.50;89.14
72525;BME280;60547;48.502;8.996;2022-11-06T00:44:18;98350.44;;;3.43;89.69
72525;BME280;60547;48.502;8.996;2022-11-06T00:46:44;98363.78;;;3.41;89.76
72525;BME280;60547;48.502;8.996;2022-11-06T00:49:09;98376.38;;;3.46;89.93
72525;BME280;60547;48.502;8.996;2022-11-06T00:51:36;98366.25;;;3.53;89.97
72525;BME280;60547;48.502;8.996;2022-11-06T00:54:05;98354.44;;;3.53;89.42
72525;BME280;60547;48.502;8.996;2022-11-06T00:56:32;98360.78;;;3.57;89.70
72525;BME280;60547;48.502;8.996;2022-11-06T00:58:59;98370.59;;;3.54;89.74
72525;BME280;60547;48.502;8.996;2022-11-06T01:01:26;98366.25;;;3.53;89.73
72525;BME280;60547;48.502;8.996;2022-11-06T01:03:58;98358.00;;;3.53;89.22
72525;BME280;60547;48.502;8.996;2022-11-06T01:06:25;98353.66;;;3.52;88.75
72525;BME280;60547;48.502;8.996;2022-11-06T01:08:51;98355.97;;;3.47;88.50
72525;BME280;60547;48.502;8.996;2022-11-06T01:13:44;98371.66;;;3.43;87.97
72525;BME280;60547;48.502;8.996;2022-11-06T01:16:12;98366.09;;;3.39;87.89
72525;BME280;60547;48.502;8.996;2022-11-06T01:18:39;98362.88;;;3.30;87.86
72525;BME280;60547;48.502;8.996;2022-11-06T01:21:06;98368.38;;;3.30;88.16
72525;BME280;60547;48.502;8.996;2022-11-06T01:23:32;98364.34;;;3.20;88.24
72525;BME280;60547;48.502;8.996;2022-11-06T01:26:00;98363.53;;;3.20;88.14
72525;BME280;60547;48.502;8.996;2022-11-06T01:28:27;98373.28;;;3.14;87.79
72525;BME280;60547;48.502;8.996;2022-11-06T01:30:52;98376.00;;;3.10;87.45
72525;BME280;60547;48.502;8.996;2022-11-06T01:33:18;98377.47;;;3.01;87.44
72525;BME280;60547;48.502;8.996;2022-11-06T01:35:49;98377.03;;;2.99;87.24
72525;BME280;60547;48.502;8.996;2022-11-06T01:38:15;98375.88;;;3.00;87.44
72525;BME280;60547;48.502;8.996;2022-11-06T01:40:45;98370.34;;;2.96;87.46
72525;BME280;60547;48.502;8.996;2022-11-06T01:43:18;98382.13;;;2.97;87.87
72525;BME280;60547;48.502;8.996;2022-11-06T01:45:50;98374.16;;;2.88;88.05
72525;BME280;60547;48.502;8.996;2022-11-06T01:48:18;98371.84;;;2.90;88.17
72525;BME280;60547;48.502;8.996;2022-11-06T01:50:47;98380.47;;;2.88;87.51
72525;BME280;60547;48.502;8.996;2022-11-06T01:53:14;98389.13;;;2.90;88.02
72525;BME280;60547;48.502;8.996;2022-11-06T01:55:43;98390.69;;;2.91;88.80
72525;BME280;60547;48.502;8.996;2022-11-06T01:58:13;98386.03;;;2.96;88.23
72525;BME280;60547;48.502;8.996;2022-11-06T02:00:40;98394.28;;;2.96;88.95
72525;BME280;60547;48.502;8.996;2022-11-06T02:03:05;98389.16;;;2.94;89.14
72525;BME280;60547;48.502;8.996;2022-11-06T02:05:31;98395.97;;;3.04;89.29
72525;BME280;60547;48.502;8.996;2022-11-06T02:07:58;98389.63;;;3.00;88.57
72525;BME280;60547;48.502;8.996;2022-11-06T02:10:24;98390.78;;;2.99;89.63
72525;BME280;60547;48.502;8.996;2022-11-06T02:13:01;98386.88;;;3.00;89.40
72525;BME280;60547;48.502;8.996;2022-11-06T02:15:48;98390.78;;;2.99;89.07
72525;BME280;60547;48.502;8.996;2022-11-06T02:18:31;98382.16;;;3.00;90.09
72525;BME280;60547;48.502;8.996;2022-11-06T02:26:45;98358.56;;;2.96;88.73
72525;BME280;60547;48.502;8.996;2022-11-06T02:29:19;98356.56;;;2.92;88.73
72525;BME280;60547;48.502;8.996;2022-11-06T02:31:46;98344.31;;;2.86;88.57
72525;BME280;60547;48.502;8.996;2022-11-06T02:34:15;98341.59;;;2.90;88.83
72525;BME280;60547;48.502;8.996;2022-11-06T02:36:50;98343.59;;;2.93;88.70
72525;BME280;60547;48.502;8.996;2022-11-06T02:39:21;98334.16;;;2.90;89.35
72525;BME280;60547;48.502;8.996;2022-11-06T02:41:50;98329.06;;;2.92;88.56
72525;BME280;60547;48.502;8.996;2022-11-06T02:44:21;98321.59;;;2.89;88.87
72525;BME280;60547;48.502;8.996;2022-11-06T02:47:00;98329.06;;;2.92;89.05
72525;BME280;60547;48.502;8.996;2022-11-06T02:49:44;98311.78;;;2.92;88.92
72525;BME280;60547;48.502;8.996;2022-11-06T02:52:21;98303.59;;;2.96;89.52
72525;BME280;60547;48.502;8.996;2022-11-06T02:54:54;98298.00;;;2.88;89.83
72525;BME280;60547;48.502;8.996;2022-11-06T02:57:22;98301.19;;;2.90;89.97
72525;BME280;60547;48.502;8.996;2022-11-06T03:02:26;98307.47;;;2.91;90.83
72525;BME280;60547;48.502;8.996;2022-11-06T03:05:05;98293.28;;;2.85;91.13
72525;BME280;60547;48.502;8.996;2022-11-06T03:07:37;98283.78;;;2.79;90.59
72525;BME280;60547;48.502;8.996;2022-11-06T03:10:05;98295.59;;;2.83;90.47
72525;BME280;60547;48.502;8.996;2022-11-06T03:12:38;98302.59;;;2.77;91.14
72525;BME280;60547;48.502;8.996;2022-11-06T03:15:40;98293.59;;;2.80;90.99
72525;BME280;60547;48.502;8.996;2022-11-06T03:23:57;98284.59;;;2.83;91.18
72525;BME280;60547;48.502;8.996;2022-11-06T03:26:31;98294.03;;;2.82;90.03
72525;BME280;60547;48.502;8.996;2022-11-06T03:31:54;98281.44;;;2.81;90.08
72525;BME280;60547;48.502;8.996;2022-11-06T03:34:36;98274.34;;;2.77;89.84
72525;BME280;60547;48.502;8.996;2022-11-06T03:37:32;98275.19;;;2.84;89.62
72525;BME280;60547;48.502;8.996;2022-11-06T03:39:56;98273.91;;;2.75;90.54
72525;BME280;60547;48.502;8.996;2022-11-06T03:42:29;98266.44;;;2.72;90.35
72525;BME280;60547;48.502;8.996;2022-11-06T03:44:57;98267.22;;;2.72;90.33
72525;BME280;60547;48.502;8.996;2022-11-06T03:47:37;98271.16;;;2.75;89.71
72525;BME280;60547;48.502;8.996;2022-11-06T03:52:39;98277.41;;;2.72;90.51
72525;BME280;60547;48.502;8.996;2022-11-06T03:55:15;98265.59;;;2.68;89.87
72525;BME280;60547;48.502;8.996;2022-11-06T03:57:56;98261.22;;;2.63;89.96
72525;BME280;60547;48.502;8.996;2022-11-06T04:00:23;98254.47;;;2.57;89.93
72525;BME280;60547;48.502;8.996;2022-11-06T04:02:55;98253.31;;;2.58;89.94
72525;BME280;60547;48.502;8.996;2022-11-06T04:05:33;98248.16;;;2.53;89.78
72525;BME280;60547;48.502;8.996;2022-11-06T04:07:59;98240.66;;;2.50;90.33
72525;BME280;60547;48.502;8.996;2022-11-06T04:10:47;98237.13;;;2.49;90.03
72525;BME280;60547;48.502;8.996;2022-11-06T04:13:34;98238.69;;;2.47;89.55
72525;BME280;60547;48.502;8.996;2022-11-06T04:16:20;98222.00;;;2.29;89.79
72525;BME280;60547;48.502;8.996;2022-11-06T04:18:46;98221.47;;;2.20;89.79
72525;BME280;60547;48.502;8.996;2022-11-06T04:24:25;98218.78;;;2.23;90.18
72525;BME280;60547;48.502;8.996;2022-11-06T04:30:10;98216.66;;;2.43;90.76
72525;BME280;60547;48.502;8.996;2022-11-06T04:41:11;98200.16;;;2.40;89.65
72525;BME280;60547;48.502;8.996;2022-11-06T04:43:41;98207.22;;;2.41;90.08
72525;BME280;60547;48.502;8.996;2022-11-06T04:46:10;98184.44;;;2.37;89.46
72525;BME280;60547;48.502;8.996;2022-11-06T04:48:37;98180.09;;;2.36;89.61
72525;BME280;60547;48.502;8.996;2022-11-06T04:51:06;98176.97;;;2.37;89.83
72525;BME280;60547;48.502;8.996;2022-11-06T04:53:33;98173.44;;;2.37;90.69
72525;BME280;60547;48.502;8.996;2022-11-06T04:56:07;98176.69;;;2.46;90.51
72525;BME280;60547;48.502;8.996;2022-11-06T04:58:33;98185.28;;;2.44;89.75
72525;BME280;60547;48.502;8.996;2022-11-06T05:00:59;98198.22;;;2.44;89.71
72525;BME280;60547;48.502;8.996;2022-11-06T05:03:24;98196.06;;;2.26;89.85
72525;BME280;60547;48.502;8.996;2022-11-06T05:05:50;98199.28;;;2.32;90.59
72525;BME280;60547;48.502;8.996;2022-11-06T05:08:17;98206.81;;;2.39;89.45
72525;BME280;60547;48.502;8.996;2022-11-06T05:10:43;98199.41;;;2.43;90.03
72525;BME280;60547;48.502;8.996;2022-11-06T05:13:09;98205.59;;;2.36;89.98
72525;BME280;60547;48.502;8.996;2022-11-06T05:15:35;98208.69;;;2.31;90.04
72525;BME280;60547;48.502;8.996;2022-11-06T05:18:00;98202.56;;;2.11;89.72
72525;BME280;60547;48.502;8.996;2022-11-06T05:20:26;98207.53;;;2.02;90.14
72525;BME280;60547;48.502;8.996;2022-11-06T05:22:51;98215.44;;;2.07;90.42
72525;BME280;60547;48.502;8.996;2022-11-06T05:25:24;98238.56;;;2.06;89.62
72525;BME280;60547;48.502;8.996;2022-11-06T05:27:49;98227.06;;;1.97;90.23
72525;BME280;60547;48.502;8.996;2022-11-06T05:30:15;98223.59;;;1.74;90.60
72525;BME280;60547;48.502;8.996;2022-11-06T05:32:41;98222.66;;;1.89;90.13
72525;BME280;60547;48.502;8.996;2022-11-06T05:35:06;98226.53;;;1.88;90.23
72525;BME280;60547;48.502;8.996;2022-11-06T05:37:32;98234.19;;;2.02;90.30
72525;BME280;60547;48.502;8.996;2022-11-06T05:39:57;98229.56;;;2.09;90.14
72525;BME280;60547;48.502;8.996;2022-11-06T05:42:23;98210.59;;;1.97;90.04
72525;BME280;60547;48.502;8.996;2022-11-06T05:44:48;98208.31;;;2.03;90.48
72525;BME280;60547;48.502;8.996;2022-11-06T05:47:13;98203.63;;;2.03;90.03
72525;BME280;60547;48.502;8.996;2022-11-06T05:49:39;98211.16;;;2.10;89.98
72525;BME280;60547;48.502;8.996;2022-11-06T05:52:04;98216.19;;;2.04;89.81
72525;BME280;60547;48.502;8.996;2022-11-06T05:54:30;98210.75;;;2.08;90.30
72525;BME280;60547;48.502;8.996;2022-11-06T05:56:55;98206.13;;;2.15;90.04
72525;BME280;60547;48.502;8.996;2022-11-06T05:59:20;98218.66;;;2.13;89.63
72525;BME280;60547;48.502;8.996;2022-11-06T06:01:46;98228.78;;;2.09;89.50
72525;BME280;60547;48.502;8.996;2022-11-06T06:04:11;98218.66;;;2.13;90.48
72525;BME280;60547;48.502;8.996;2022-11-06T06:06:37;98224.13;;;2.13;89.07
72525;BME280;60547;48.502;8.996;2022-11-06T06:09:03;98231.25;;;2.17;89.54
72525;BME280;60547;48.502;8.996;2022-11-06T06:11:28;98224.59;;;2.18;89.25
72525;BME280;60547;48.502;8.996;2022-11-06T06:13:54;98226.50;;;2.14;90.00
72525;BME280;60547;48.502;8.996;2022-11-06T06:16:20;98219.47;;;2.17;90.05
72525;BME280;60547;48.502;8.996;2022-11-06T06:18:48;98219.91;;;2.19;89.16
72525;BME280;60547;48.502;8.996;2022-11-06T06:21:15;98209.66;;;2.16;89.78
72525;BME280;60547;48.502;8.996;2022-11-06T06:23:40;98202.63;;;2.18;89.35
72525;BME280;60547;48.502;8.996;2022-11-06T06:26:06;98197.31;;;2.33;88.74
72525;BME280;60547;48.502;8.996;2022-11-06T06:28:32;98192.91;;;2.24;89.37
72525;BME280;60547;48.502;8.996;2022-11-06T06:30:58;98195.25;;;2.22;89.15
72525;BME280;60547;48.502;8.996;2022-11-06T06:33:24;98183.09;;;2.23;89.58
72525;BME280;60547;48.502;8.996;2022-11-06T06:35:49;98183.81;;;2.17;90.20
72525;BME280;60547;48.502;8.996;2022-11-06T06:38:15;98188.25;;;2.29;89.76
72525;BME280;60547;48.502;8.996;2022-11-06T06:40:40;98195.75;;;2.32;89.40
72525;BME280;60547;48.502;8.996;2022-11-06T06:43:06;98185.66;;;2.43;89.44
72525;BME280;60547;48.502;8.996;2022-11-06T06:45:31;98180.59;;;2.45;88.82
72525;BME280;60547;48.502;8.996;2022-11-06T06:48:01;98173.56;;;2.47;89.11
72525;BME280;60547;48.502;8.996;2022-11-06T06:50:27;98171.78;;;2.29;88.98
72525;BME280;60547;48.502;8.996;2022-11-06T06:52:56;98162.09;;;2.38;88.52
72525;BME280;60547;48.502;8.996;2022-11-06T06:55:23;98167.88;;;2.30;89.14
72525;BME280;60547;48.502;8.996;2022-11-06T06:57:54;98174.19;;;2.34;89.44
72525;BME280;60547;48.502;8.996;2022-11-06T07:00:20;98171.84;;;2.36;89.59
72525;BME280;60547;48.502;8.996;2022-11-06T07:02:46;98168.38;;;2.39;90.43
72525;BME280;60547;48.502;8.996;2022-11-06T07:05:11;98163.66;;;2.39;90.28
72525;BME280;60547;48.502;8.996;2022-11-06T07:07:37;98151.44;;;2.33;89.98
72525;BME280;60547;48.502;8.996;2022-11-06T07:10:03;98158.53;;;2.38;88.83
72525;BME280;60547;48.502;8.996;2022-11-06T07:12:28;98151.13;;;2.42;89.44
72525;BME280;60547;48.502;8.996;2022-11-06T07:14:54;98140.00;;;2.28;89.34
72525;BME280;60547;48.502;8.996;2022-11-06T07:17:20;98142.78;;;2.31;89.86
72525;BME280;60547;48.502;8.996;2022-11-06T07:19:45;98131.00;;;2.31;89.74
72525;BME280;60547;48.502;8.996;2022-11-06T07:22:11;98122.44;;;2.36;90.15
72525;BME280;60547;48.502;8.996;2022-11-06T07:24:36;98116.19;;;2.39;89.68
72525;BME280;60547;48.502;8.996;2022-11-06T07:27:02;98105.97;;;2.36;90.43
72525;BME280;60547;48.502;8.996;2022-11-06T07:29:27;98111.59;;;2.50;90.15
72525;BME280;60547;48.502;8.996;2022-11-06T07:31:53;98107.72;;;2.54;89.91
72525;BME280;60547;48.502;8.996;2022-11-06T07:34:18;98099.66;;;2.32;89.34
72525;BME280;60547;48.502;8.996;2022-11-06T07:36:44;98095.09;;;2.46;89.47
72525;BME280;60547;48.502;8.996;2022-11-06T07:39:09;98086.84;;;2.46;89.47
72525;BME280;60547;48.502;8.996;2022-11-06T07:41:36;98091.97;;;2.48;89.89
72525;BME280;60547;48.502;8.996;2022-11-06T07:44:02;98073.03;;;2.36;89.24
72525;BME280;60547;48.502;8.996;2022-11-06T07:46:27;98079.34;;;2.40;89.72
72525;BME280;60547;48.502;8.996;2022-11-06T07:48:53;98073.53;;;2.48;89.48
72525;BME280;60547;48.502;8.996;2022-11-06T07:51:19;98071.50;;;2.42;90.40
72525;BME280;60547;48.502;8.996;2022-11-06T07:53:45;98074.72;;;2.51;90.78
72525;BME280;60547;48.502;8.996;2022-11-06T07:56:10;98058.63;;;2.49;90.37
72525;BME280;60547;48.502;8.996;2022-11-06T07:58:36;98059.00;;;2.48;90.37
72525;BME280;60547;48.502;8.996;2022-11-06T08:01:02;98052.00;;;2.54;90.04
72525;BME280;60547;48.502;8.996;2022-11-06T08:03:27;98048.91;;;2.59;89.68
72525;BME280;60547;48.502;8.996;2022-11-06T08:05:57;98045.69;;;2.50;90.31
72525;BME280;60547;48.502;8.996;2022-11-06T08:08:24;98037.56;;;2.64;90.29
72525;BME280;60547;48.502;8.996;2022-11-06T08:10:49;98034.72;;;2.53;91.14
72525;BME280;60547;48.502;8.996;2022-11-06T08:13:18;98034.78;;;2.61;91.50
72525;BME280;60547;48.502;8.996;2022-11-06T08:15:44;98022.66;;;2.65;91.13
72525;BME280;60547;48.502;8.996;2022-11-06T08:18:10;98024.28;;;2.73;90.09
72525;BME280;60547;48.502;8.996;2022-11-06T08:20:37;98031.72;;;2.69;90.29
72525;BME280;60547;48.502;8.996;2022-11-06T08:23:05;98038.38;;;2.68;90.49
72525;BME280;60547;48.502;8.996;2022-11-06T08:25:31;98036.84;;;2.74;90.78
72525;BME280;60547;48.502;8.996;2022-11-06T08:28:00;98043.53;;;2.73;90.14
72525;BME280;60547;48.502;8.996;2022-11-06T08:30:27;98047.44;;;2.72;90.80
72525;BME280;60547;48.502;8.996;2022-11-06T08:32:54;98045.13;;;2.78;91.10
72525;BME280;60547;48.502;8.996;2022-11-06T08:35:20;98039.22;;;2.76;90.01
72525;BME280;60547;48.502;8.996;2022-11-06T08:37:46;98041.13;;;2.68;89.98
72525;BME280;60547;48.502;8.996;2022-11-06T08:40:11;98049.72;;;2.63;90.19
72525;BME280;60547;48.502;8.996;2022-11-06T08:42:37;98036.81;;;2.67;90.28
72525;BME280;60547;48.502;8.996;2022-11-06T08:45:04;98035.59;;;2.65;90.90
72525;BME280;60547;48.502;8.996;2022-11-06T08:47:30;98033.22;;;2.59;90.39
72525;BME280;60547;48.502;8.996;2022-11-06T08:49:55;98041.81;;;2.54;91.25
72525;BME280;60547;48.502;8.996;2022-11-06T08:52:21;98041.88;;;2.65;90.46
72525;BME280;60547;48.502;8.996;2022-11-06T08:54:46;98045.09;;;2.74;90.04
72525;BME280;60547;48.502;8.996;2022-11-06T08:57:12;98040.91;;;2.91;89.87
72525;BME280;60547;48.502;8.996;2022-11-06T08:59:37;98053.84;;;2.90;89.55
72525;BME280;60547;48.502;8.996;2022-11-06T09:02:03;98057.78;;;2.89;89.31
72525;BME280;60547;48.502;8.996;2022-11-06T09:04:28;98049.13;;;2.87;89.46
72525;BME280;60547;48.502;8.996;2022-11-06T09:06:55;98046.00;;;2.92;89.30
72525;BME280;60547;48.502;8.996;2022-11-06T09:09:22;98046.81;;;2.97;89.22
72525;BME280;60547;48.502;8.996;2022-11-06T09:11:47;98049.63;;;3.04;88.98
72525;BME280;60547;48.502;8.996;2022-11-06T09:14:13;98051.28;;;3.19;89.03
72525;BME280;60547;48.502;8.996;2022-11-06T09:16:39;98050.06;;;3.13;89.21
72525;BME280;60547;48.502;8.996;2022-11-06T09:19:04;98052.41;;;3.07;89.91
72525;BME280;60547;48.502;8.996;2022-11-06T09:21:30;98060.25;;;3.09;90.44
72525;BME280;60547;48.502;8.996;2022-11-06T09:23:56;98062.72;;;3.24;89.96
72525;BME280;60547;48.502;8.996;2022-11-06T09:26:22;98062.34;;;3.30;90.03
72525;BME280;60547;48.502;8.996;2022-11-06T09:28:48;98074.88;;;3.23;90.17
72525;BME280;60547;48.502;8.996;2022-11-06T09:31:13;98065.09;;;3.30;90.61
72525;BME280;60547;48.502;8.996;2022-11-06T09:33:39;98065.91;;;3.37;90.36
72525;BME280;60547;48.502;8.996;2022-11-06T09:36:05;98055.75;;;3.48;90.32
72525;BME280;60547;48.502;8.996;2022-11-06T09:38:31;98036.47;;;3.38;90.84
72525;BME280;60547;48.502;8.996;2022-11-06T09:41:01;98036.88;;;3.43;90.30
72525;BME280;60547;48.502;8.996;2022-11-06T09:45:53;98019.91;;;3.27;90.72
72525;BME280;60547;48.502;8.996;2022-11-06T09:48:40;98027.06;;;3.46;90.12
72525;BME280;60547;48.502;8.996;2022-11-06T09:51:30;98022.03;;;3.62;90.20
72525;BME280;60547;48.502;8.996;2022-11-06T09:54:14;98003.16;;;3.57;89.82
72525;BME280;60547;48.502;8.996;2022-11-06T09:56:42;98003.56;;;3.70;89.82
72525;BME280;60547;48.502;8.996;2022-11-06T09:59:14;97999.28;;;3.76;89.91
72525;BME280;60547;48.502;8.996;2022-11-06T10:01:44;97995.34;;;3.80;89.57
72525;BME280;60547;48.502;8.996;2022-11-06T10:07:00;97989.88;;;3.91;89.63
72525;BME280;60547;48.502;8.996;2022-11-06T10:09:25;97983.59;;;3.91;89.28
72525;BME280;60547;48.502;8.996;2022-11-06T10:14:26;97971.00;;;4.00;89.83
72525;BME280;60547;48.502;8.996;2022-11-06T10:17:47;97960.41;;;4.02;90.10
72525;BME280;60547;48.502;8.996;2022-11-06T10:20:25;97958.44;;;4.17;89.02
72525;BME280;60547;48.502;8.996;2022-11-06T10:31:30;97912.41;;;4.21;88.41
72525;BME280;60547;48.502;8.996;2022-11-06T10:40:23;97926.19;;;4.25;89.11
72525;BME280;60547;48.502;8.996;2022-11-06T10:45:35;97909.25;;;4.44;89.58
72525;BME280;60547;48.502;8.996;2022-11-06T10:48:22;97908.88;;;4.42;90.71
72525;BME280;60547;48.502;8.996;2022-11-06T10:59:27;97870.50;;;5.04;89.26
72525;BME280;60547;48.502;8.996;2022-11-06T11:01:52;97853.13;;;5.14;89.08
72525;BME280;60547;48.502;8.996;2022-11-06T11:04:18;97838.13;;;5.19;88.48
72525;BME280;60547;48.502;8.996;2022-11-06T11:10:34;97835.31;;;5.30;87.43
72525;BME280;60547;48.502;8.996;2022-11-06T11:13:03;97826.59;;;5.35;86.99
72525;BME280;60547;48.502;8.996;2022-11-06T11:15:43;97797.09;;;5.28;87.36
72525;BME280;60547;48.502;8.996;2022-11-06T11:20:39;97806.50;;;5.34;87.93
72525;BME280;60547;48.502;8.996;2022-11-06T11:25:43;97789.84;;;5.48;87.93
72525;BME280;60547;48.502;8.996;2022-11-06T11:28:20;97790.59;;;5.53;88.68
72525;BME280;60547;48.502;8.996;2022-11-06T11:30:58;97786.19;;;5.62;86.60
72525;BME280;60547;48.502;8.996;2022-11-06T11:33:25;97768.16;;;5.50;86.75
72525;BME280;60547;48.502;8.996;2022-11-06T11:35:52;97762.72;;;5.40;87.68
72525;BME280;60547;48.502;8.996;2022-11-06T11:38:18;97759.69;;;5.24;88.27
72525;BME280;60547;48.502;8.996;2022-11-06T11:40:45;97747.22;;;5.57;87.49
72525;BME280;60547;48.502;8.996;2022-11-06T11:43:26;97739.69;;;5.61;87.06
72525;BME280;60547;48.502;8.996;2022-11-06T11:48:41;97738.25;;;5.90;86.35
72525;BME280;60547;48.502;8.996;2022-11-06T11:51:42;97728.56;;;6.12;85.73
72525;BME280;60547;48.502;8.996;2022-11-06T11:56:59;97715.94;;;6.45;85.02
72525;BME280;60547;48.502;8.996;2022-11-06T12:00:15;97716.44;;;6.67;84.96
72525;BME280;60547;48.502;8.996;2022-11-06T12:02:18;97715.84;;;7.10;84.25
72525;BME280;60547;48.502;8.996;2022-11-06T12:04:50;97705.06;;;7.42;82.00
72525;BME280;60547;48.502;8.996;2022-11-06T12:07:32;97699.91;;;7.68;80.12
72525;BME280;60547;48.502;8.996;2022-11-06T12:10:02;97711.56;;;7.79;80.07
72525;BME280;60547;48.502;8.996;2022-11-06T12:12:37;97710.88;;;7.95;80.72
72525;BME280;60547;48.502;8.996;2022-11-06T12:15:24;97687.31;;;8.06;81.09
72525;BME280;60547;48.502;8.996;2022-11-06T12:17:54;97689.44;;;8.19;82.04
72525;BME280;60547;48.502;8.996;2022-11-06T12:20:33;97693.00;;;7.99;81.06
72525;BME280;60547;48.502;8.996;2022-11-06T12:23:01;97686.25;;;8.00;80.76
72525;BME280;60547;48.502;8.996;2022-11-06T12:25:40;97677.50;;;7.59;82.43
72525;BME280;60547;48.502;8.996;2022-11-06T12:28:13;97685.44;;;7.33;82.68
72525;BME280;60547;48.502;8.996;2022-11-06T12:30:44;97681.66;;;7.47;83.22
72525;BME280;60547;48.502;8.996;2022-11-06T12:33:16;97674.78;;;7.32;83.03
72525;BME280;60547;48.502;8.996;2022-11-06T12:35:47;97670.94;;;7.26;83.69
72525;BME280;60547;48.502;8.996;2022-11-06T12:38:23;97660.47;;;7.37;83.11
72525;BME280;60547;48.502;8.996;2022-11-06T12:40:55;97667.88;;;7.43;82.95
72525;BME280;60547;48.502;8.996;2022-11-06T12:57:03;97654.13;;;8.03;81.78
72525;BME280;60547;48.502;8.996;2022-11-06T13:00:22;97643.84;;;8.03;80.41
72525;BME280;60547;48.502;8.996;2022-11-06T13:08:50;97626.91;;;8.18;80.82
72525;BME280;60547;48.502;8.996;2022-11-06T13:11:35;97624.50;;;8.20;79.93
72525;BME280;60547;48.502;8.996;2022-11-06T13:14:24;97619.47;;;8.15;80.13
72525;BME280;60547;48.502;8.996;2022-11-06T13:30:25;97599.22;;;7.78;80.69
72525;BME280;60547;48.502;8.996;2022-11-06T13:35:20;97598.28;;;7.85;81.60
72525;BME280;60547;48.502;8.996;2022-11-06T13:37:47;97591.19;;;7.84;81.57
72525;BME280;60547;48.502;8.996;2022-11-06T13:43:03;97587.28;;;7.81;81.52
72525;BME280;60547;48.502;8.996;2022-11-06T13:45:42;97590.06;;;7.81;81.81
72525;BME280;60547;48.502;8.996;2022-11-06T13:48:16;97592.13;;;7.77;82.75
72525;BME280;60547;48.502;8.996;2022-11-06T13:53:49;97603.63;;;7.75;82.83
72525;BME280;60547;48.502;8.996;2022-11-06T14:00:12;97590.69;;;7.69;82.64
72525;BME280;60547;48.502;8.996;2022-11-06T14:02:33;97593.91;;;7.44;84.45
72525;BME280;60547;48.502;8.996;2022-11-06T14:07:46;97597.34;;;7.52;84.65
72525;BME280;60547;48.502;8.996;2022-11-06T14:10:18;97621.06;;;7.53;84.66
72525;BME280;60547;48.502;8.996;2022-11-06T14:12:46;97627.31;;;7.57;84.47
72525;BME280;60547;48.502;8.996;2022-11-06T14:15:22;97631.16;;;7.63;84.68
72525;BME280;60547;48.502;8.996;2022-11-06T14:17:59;97624.06;;;7.62;84.95
72525;BME280;60547;48.502;8.996;2022-11-06T14:20:31;97620.91;;;7.60;84.87
72525;BME280;60547;48.502;8.996;2022-11-06T14:26:08;97619.34;;;7.59;85.81
72525;BME280;60547;48.502;8.996;2022-11-06T14:28:38;97615.38;;;7.60;85.83
72525;BME280;60547;48.502;8.996;2022-11-06T14:31:04;97613.81;;;7.59;86.34
72525;BME280;60547;48.502;8.996;2022-11-06T14:38:39;97586.25;;;7.52;86.79
72525;BME280;60547;48.502;8.996;2022-11-06T14:44:32;97572.84;;;7.50;86.01
72525;BME280;60547;48.502;8.996;2022-11-06T14:47:06;97575.19;;;7.52;85.06
72525;BME280;60547;48.502;8.996;2022-11-06T14:49:41;97589.41;;;7.54;85.50
72525;BME280;60547;48.502;8.996;2022-11-06T14:52:12;97585.50;;;7.51;84.79
72525;BME280;60547;48.502;8.996;2022-11-06T14:54:41;97575.19;;;7.52;85.19
72525;BME280;60547;48.502;8.996;2022-11-06T14:57:15;97581.56;;;7.49;84.65
72525;BME280;60547;48.502;8.996;2022-11-06T14:59:43;97584.16;;;7.59;84.95
72525;BME280;60547;48.502;8.996;2022-11-06T15:02:19;97568.03;;;7.54;84.82
72525;BME280;60547;48.502;8.996;2022-11-06T15:04:52;97564.13;;;7.52;84.60
72525;BME280;60547;48.502;8.996;2022-11-06T15:08:11;97564.47;;;7.54;85.04
72525;BME280;60547;48.502;8.996;2022-11-06T15:13:21;97573.00;;;7.63;85.17
72525;BME280;60547;48.502;8.996;2022-11-06T15:15:50;97568.94;;;7.48;85.57
72525;BME280;60547;48.502;8.996;2022-11-06T15:18:19;97567.44;;;7.43;85.91
72525;BME280;60547;48.502;8.996;2022-11-06T15:20:59;97567.56;;;7.36;86.55
72525;BME280;60547;48.502;8.996;2022-11-06T15:24:02;97564.09;;;7.32;86.79
72525;BME280;60547;48.502;8.996;2022-11-06T15:26:48;97563.78;;;7.26;86.80
72525;BME280;60547;48.502;8.996;2022-11-06T15:31:44;97562.72;;;7.20;88.25
72525;BME280;60547;48.502;8.996;2022-11-06T15:34:36;97569.09;;;7.17;88.55
72525;BME280;60547;48.502;8.996;2022-11-06T15:37:17;97575.78;;;7.20;88.84
72525;BME280;60547;48.502;8.996;2022-11-06T15:42:17;97575.13;;;7.12;89.70
72525;BME280;60547;48.502;8.996;2022-11-06T15:44:44;97579.09;;;7.11;89.89
72525;BME280;60547;48.502;8.996;2022-11-06T15:47:24;97575.19;;;7.08;90.02
72525;BME280;60547;48.502;8.996;2022-11-06T15:50:16;97578.78;;;7.05;90.26
72525;BME280;60547;48.502;8.996;2022-11-06T15:52:43;97585.16;;;7.02;90.61
72525;BME280;60547;48.502;8.996;2022-11-06T15:55:33;97591.59;;;6.96;90.82
72525;BME280;60547;48.502;8.996;2022-11-06T15:58:12;97578.59;;;6.93;90.75